sensor_id;sensor_type;location;lat;lon;timestamp;P1;durP1;ratioP1;P2;durP2;ratioP2
20203;SDS011;10261;49.010;12.034;2022-12-08T00:00:41;11.38;;;5.93;;
20203;SDS011;10261;49.010;12.034;2022-12-08T00:01:43;7.47;;;5.18;;
20203;SDS011;10261;49.010;12.034;2022-12-08T00:02:48;9.35;;;6.07;;
20203;SDS011;10261;49.010;12.034;2022-12-08T00:03:50;8.50;;;5.55;;
20203;SDS011;10261;49.010;12.034;2022-12-08T00:04:53;7.50;;;5.95;;
20203;SDS011;10261;49.010;12.034;2022-12-08T00:06:18;6.15;;;5.20;;
20203;SDS011;10261;49.010;12.034;2022-12-08T00:07:42;6.75;;;5.70;;
20203;SDS011;10261;49.010;12.034;2022-12-08T00:09:03;7.20;;;4.95;;
20203;SDS011;10261;49.010;12.034;2022-12-08T00:10:24;6.45;;;4.78;;
20203;SDS011;10261;49.010;12.034;2022-12-08T00:11:47;5.97;;;5.05;;
20203;SDS011;10261;49.010;12.034;2022-12-08T00:12:49;9.40;;;6.18;;
20203;SDS011;10261;49.010;12.034;2022-12-08T00:13:52;6.15;;;4.70;;
20203;SDS011;10261;49.010;12.034;2022-12-08T00:14:54;8.45;;;5.65;;
20203;SDS011;10261;49.010;12.034;2022-12-08T00:15:58;8.18;;;5.45;;
20203;SDS011;10261;49.010;12.034;2022-12-08T00:17:01;9.10;;;5.82;;
20203;SDS011;10261;49.010;12.034;2022-12-08T00:18:06;7.28;;;4.97;;
20203;SDS011;10261;49.010;12.034;2022-12-08T00:19:08;8.10;;;5.80;;
20203;SDS011;10261;49.010;12.034;2022-12-08T00:20:11;6.75;;;5.25;;
20203;SDS011;10261;49.010;12.034;2022-12-08T00:21:13;7.35;;;5.40;;
20203;SDS011;10261;49.010;12.034;2022-12-08T00:22:16;6.50;;;5.82;;
20203;SDS011;10261;49.010;12.034;2022-12-08T00:23:18;7.50;;;5.20;;
20203;SDS011;10261;49.010;12.034;2022-12-08T00:24:21;6.82;;;5.35;;
20203;SDS011;10261;49.010;12.034;2022-12-08T00:25:26;6.93;;;5.68;;
20203;SDS011;10261;49.010;12.034;2022-12-08T00:26:28;7.93;;;5.10;;
20203;SDS011;10261;49.010;12.034;2022-12-08T00:27:31;6.60;;;5.05;;
20203;SDS011;10261;49.010;12.034;2022-12-08T00:28:33;6.00;;;4.90;;
20203;SDS011;10261;49.010;12.034;2022-12-08T00:29:36;9.38;;;6.43;;
20203;SDS011;10261;49.010;12.034;2022-12-08T00:30:39;8.20;;;5.70;;
20203;SDS011;10261;49.010;12.034;2022-12-08T00:31:42;10.30;;;6.03;;
20203;SDS011;10261;49.010;12.034;2022-12-08T00:32:44;8.95;;;6.00;;
20203;SDS011;10261;49.010;12.034;2022-12-08T00:33:49;9.23;;;5.80;;
20203;SDS011;10261;49.010;12.034;2022-12-08T00:34:51;11.13;;;6.30;;
20203;SDS011;10261;49.010;12.034;2022-12-08T00:35:54;9.20;;;6.00;;
20203;SDS011;10261;49.010;12.034;2022-12-08T00:36:55;8.38;;;5.68;;
20203;SDS011;10261;49.010;12.034;2022-12-08T00:37:59;9.93;;;5.95;;
20203;SDS011;10261;49.010;12.034;2022-12-08T00:39:01;7.28;;;5.10;;
20203;SDS011;10261;49.010;12.034;2022-12-08T00:40:05;9.25;;;6.00;;
20203;SDS011;10261;49.010;12.034;2022-12-08T00:41:11;8.30;;;5.57;;
20203;SDS011;10261;49.010;12.034;2022-12-08T00:42:15;8.80;;;5.55;;
20203;SDS011;10261;49.010;12.034;2022-12-08T00:43:17;8.23;;;5.47;;
20203;SDS011;10261;49.010;12.034;2022-12-08T00:44:20;9.68;;;6.20;;
20203;SDS011;10261;49.010;12.034;2022-12-08T00:45:22;7.97;;;6.25;;
20203;SDS011;10261;49.010;12.034;2022-12-08T00:46:25;7.38;;;5.65;;
20203;SDS011;10261;49.010;12.034;2022-12-08T00:47:27;6.18;;;5.57;;
20203;SDS011;10261;49.010;12.034;2022-12-08T00:48:30;8.52;;;5.65;;
20203;SDS011;10261;49.010;12.034;2022-12-08T00:49:34;5.90;;;5.30;;
20203;SDS011;10261;49.010;12.034;2022-12-08T00:50:37;9.25;;;5.65;;
20203;SDS011;10261;49.010;12.034;2022-12-08T00:51:39;11.07;;;6.07;;
20203;SDS011;10261;49.010;12.034;2022-12-08T00:52:42;11.30;;;5.63;;
20203;SDS011;10261;49.010;12.034;2022-12-08T00:53:45;9.07;;;5.88;;
20203;SDS011;10261;49.010;12.034;2022-12-08T00:54:47;7.50;;;5.78;;
20203;SDS011;10261;49.010;12.034;2022-12-08T00:55:50;8.10;;;5.93;;
20203;SDS011;10261;49.010;12.034;2022-12-08T00:56:52;8.10;;;5.50;;
20203;SDS011;10261;49.010;12.034;2022-12-08T00:57:55;8.70;;;5.43;;
20203;SDS011;10261;49.010;12.034;2022-12-08T00:58:56;9.93;;;5.80;;
20203;SDS011;10261;49.010;12.034;2022-12-08T01:00:00;7.85;;;5.65;;
20203;SDS011;10261;49.010;12.034;2022-12-08T01:01:08;7.55;;;5.22;;
20203;SDS011;10261;49.010;12.034;2022-12-08T01:02:11;9.32;;;6.18;;
20203;SDS011;10261;49.010;12.034;2022-12-08T01:03:13;9.20;;;6.30;;
20203;SDS011;10261;49.010;12.034;2022-12-08T01:04:17;7.50;;;5.53;;
20203;SDS011;10261;49.010;12.034;2022-12-08T01:05:21;8.85;;;6.28;;
20203;SDS011;10261;49.010;12.034;2022-12-08T01:06:24;6.97;;;5.30;;
20203;SDS011;10261;49.010;12.034;2022-12-08T01:07:26;8.60;;;6.25;;
20203;SDS011;10261;49.010;12.034;2022-12-08T01:08:29;9.55;;;6.13;;
20203;SDS011;10261;49.010;12.034;2022-12-08T01:09:31;8.35;;;5.63;;
20203;SDS011;10261;49.010;12.034;2022-12-08T01:10:34;8.50;;;5.82;;
20203;SDS011;10261;49.010;12.034;2022-12-08T01:11:36;12.65;;;6.53;;
20203;SDS011;10261;49.010;12.034;2022-12-08T01:12:39;8.85;;;6.57;;
20203;SDS011;10261;49.010;12.034;2022-12-08T01:13:41;9.00;;;6.28;;
20203;SDS011;10261;49.010;12.034;2022-12-08T01:14:45;7.18;;;5.70;;
20203;SDS011;10261;49.010;12.034;2022-12-08T01:15:48;7.20;;;5.30;;
20203;SDS011;10261;49.010;12.034;2022-12-08T01:16:50;8.50;;;6.07;;
20203;SDS011;10261;49.010;12.034;2022-12-08T01:17:53;11.93;;;5.70;;
20203;SDS011;10261;49.010;12.034;2022-12-08T01:18:55;8.80;;;5.63;;
20203;SDS011;10261;49.010;12.034;2022-12-08T01:19:58;7.07;;;5.35;;
20203;SDS011;10261;49.010;12.034;2022-12-08T01:21:05;7.95;;;5.25;;
20203;SDS011;10261;49.010;12.034;2022-12-08T01:22:08;7.82;;;5.70;;
20203;SDS011;10261;49.010;12.034;2022-12-08T01:23:11;8.25;;;5.70;;
20203;SDS011;10261;49.010;12.034;2022-12-08T01:24:13;8.68;;;5.53;;
20203;SDS011;10261;49.010;12.034;2022-12-08T01:25:18;10.80;;;6.18;;
20203;SDS011;10261;49.010;12.034;2022-12-08T01:26:20;7.70;;;5.82;;
20203;SDS011;10261;49.010;12.034;2022-12-08T01:27:23;8.48;;;5.53;;
20203;SDS011;10261;49.010;12.034;2022-12-08T01:28:25;9.90;;;5.60;;
20203;SDS011;10261;49.010;12.034;2022-12-08T01:29:28;9.73;;;5.75;;
20203;SDS011;10261;49.010;12.034;2022-12-08T01:30:31;9.95;;;6.05;;
20203;SDS011;10261;49.010;12.034;2022-12-08T01:31:33;11.02;;;5.97;;
20203;SDS011;10261;49.010;12.034;2022-12-08T01:32:36;7.80;;;5.82;;
20203;SDS011;10261;49.010;12.034;2022-12-08T01:33:38;14.73;;;6.00;;
20203;SDS011;10261;49.010;12.034;2022-12-08T01:34:41;9.95;;;6.50;;
20203;SDS011;10261;49.010;12.034;2022-12-08T01:35:43;8.50;;;6.80;;
20203;SDS011;10261;49.010;12.034;2022-12-08T01:36:47;9.07;;;6.60;;
20203;SDS011;10261;49.010;12.034;2022-12-08T01:37:50;10.25;;;7.05;;
20203;SDS011;10261;49.010;12.034;2022-12-08T01:38:53;9.38;;;6.70;;
20203;SDS011;10261;49.010;12.034;2022-12-08T01:39:58;10.10;;;6.93;;
20203;SDS011;10261;49.010;12.034;2022-12-08T01:41:01;8.18;;;6.38;;
20203;SDS011;10261;49.010;12.034;2022-12-08T01:42:03;9.25;;;6.80;;
20203;SDS011;10261;49.010;12.034;2022-12-08T01:43:07;8.75;;;6.70;;
20203;SDS011;10261;49.010;12.034;2022-12-08T01:45:50;8.75;;;5.10;;
20203;SDS011;10261;49.010;12.034;2022-12-08T01:46:53;10.70;;;6.90;;
20203;SDS011;10261;49.010;12.034;2022-12-08T01:47:56;11.38;;;6.60;;
20203;SDS011;10261;49.010;12.034;2022-12-08T01:49:03;8.90;;;6.55;;
20203;SDS011;10261;49.010;12.034;2022-12-08T01:50:09;8.43;;;6.47;;
20203;SDS011;10261;49.010;12.034;2022-12-08T01:51:14;8.88;;;6.35;;
20203;SDS011;10261;49.010;12.034;2022-12-08T01:52:18;11.43;;;7.50;;
20203;SDS011;10261;49.010;12.034;2022-12-08T01:53:26;7.82;;;6.65;;
20203;SDS011;10261;49.010;12.034;2022-12-08T01:54:40;9.55;;;6.88;;
20203;SDS011;10261;49.010;12.034;2022-12-08T01:55:48;10.52;;;6.68;;
20203;SDS011;10261;49.010;12.034;2022-12-08T01:56:56;12.05;;;6.60;;
20203;SDS011;10261;49.010;12.034;2022-12-08T01:58:02;10.65;;;6.68;;
20203;SDS011;10261;49.010;12.034;2022-12-08T01:59:09;10.35;;;6.35;;
20203;SDS011;10261;49.010;12.034;2022-12-08T02:00:12;12.77;;;6.65;;
20203;SDS011;10261;49.010;12.034;2022-12-08T02:01:17;8.77;;;6.30;;
20203;SDS011;10261;49.010;12.034;2022-12-08T02:02:19;10.40;;;7.15;;
20203;SDS011;10261;49.010;12.034;2022-12-08T02:03:23;9.07;;;6.85;;
20203;SDS011;10261;49.010;12.034;2022-12-08T02:04:28;13.32;;;7.38;;
20203;SDS011;10261;49.010;12.034;2022-12-08T02:05:32;11.27;;;7.00;;
20203;SDS011;10261;49.010;12.034;2022-12-08T02:06:39;7.72;;;6.72;;
20203;SDS011;10261;49.010;12.034;2022-12-08T02:07:44;8.25;;;6.45;;
20203;SDS011;10261;49.010;12.034;2022-12-08T02:08:49;11.50;;;7.32;;
20203;SDS011;10261;49.010;12.034;2022-12-08T02:09:52;11.15;;;6.88;;
20203;SDS011;10261;49.010;12.034;2022-12-08T02:10:56;10.35;;;6.80;;
20203;SDS011;10261;49.010;12.034;2022-12-08T02:11:58;10.43;;;6.85;;
20203;SDS011;10261;49.010;12.034;2022-12-08T02:13:02;8.95;;;6.32;;
20203;SDS011;10261;49.010;12.034;2022-12-08T02:14:07;15.93;;;7.40;;
20203;SDS011;10261;49.010;12.034;2022-12-08T02:15:12;13.15;;;7.60;;
20203;SDS011;10261;49.010;12.034;2022-12-08T02:16:17;10.30;;;6.20;;
20203;SDS011;10261;49.010;12.034;2022-12-08T02:17:32;9.32;;;6.57;;
20203;SDS011;10261;49.010;12.034;2022-12-08T02:18:49;9.02;;;6.38;;
20203;SDS011;10261;49.010;12.034;2022-12-08T02:21:50;7.68;;;6.07;;
20203;SDS011;10261;49.010;12.034;2022-12-08T02:23:01;8.93;;;6.45;;
20203;SDS011;10261;49.010;12.034;2022-12-08T02:24:13;10.13;;;6.60;;
20203;SDS011;10261;49.010;12.034;2022-12-08T02:25:25;9.73;;;6.70;;
20203;SDS011;10261;49.010;12.034;2022-12-08T02:27:05;15.65;;;7.32;;
20203;SDS011;10261;49.010;12.034;2022-12-08T02:28:51;10.05;;;6.53;;
20203;SDS011;10261;49.010;12.034;2022-12-08T02:30:21;10.82;;;6.40;;
20203;SDS011;10261;49.010;12.034;2022-12-08T02:31:28;8.80;;;6.03;;
20203;SDS011;10261;49.010;12.034;2022-12-08T02:32:43;8.20;;;5.85;;
20203;SDS011;10261;49.010;12.034;2022-12-08T02:34:10;7.70;;;6.07;;
20203;SDS011;10261;49.010;12.034;2022-12-08T02:35:20;9.88;;;6.38;;
20203;SDS011;10261;49.010;12.034;2022-12-08T02:36:28;8.23;;;6.18;;
20203;SDS011;10261;49.010;12.034;2022-12-08T02:37:39;7.63;;;5.80;;
20203;SDS011;10261;49.010;12.034;2022-12-08T02:38:50;8.43;;;6.05;;
20203;SDS011;10261;49.010;12.034;2022-12-08T02:40:04;10.65;;;6.85;;
20203;SDS011;10261;49.010;12.034;2022-12-08T02:41:17;8.70;;;5.70;;
20203;SDS011;10261;49.010;12.034;2022-12-08T02:42:26;9.60;;;6.43;;
20203;SDS011;10261;49.010;12.034;2022-12-08T02:43:34;9.63;;;6.45;;
20203;SDS011;10261;49.010;12.034;2022-12-08T02:44:41;9.18;;;6.43;;
20203;SDS011;10261;49.010;12.034;2022-12-08T02:45:49;11.93;;;7.07;;
20203;SDS011;10261;49.010;12.034;2022-12-08T02:46:57;9.98;;;6.18;;
20203;SDS011;10261;49.010;12.034;2022-12-08T02:48:02;11.23;;;6.90;;
20203;SDS011;10261;49.010;12.034;2022-12-08T02:49:06;11.75;;;6.65;;
20203;SDS011;10261;49.010;12.034;2022-12-08T02:50:09;8.55;;;6.43;;
20203;SDS011;10261;49.010;12.034;2022-12-08T02:51:13;8.85;;;6.43;;
20203;SDS011;10261;49.010;12.034;2022-12-08T02:53:40;10.35;;;6.13;;
20203;SDS011;10261;49.010;12.034;2022-12-08T02:54:45;10.80;;;6.70;;
20203;SDS011;10261;49.010;12.034;2022-12-08T02:55:54;14.48;;;6.95;;
20203;SDS011;10261;49.010;12.034;2022-12-08T02:58:31;9.38;;;6.22;;
20203;SDS011;10261;49.010;12.034;2022-12-08T03:00:00;8.98;;;6.10;;
20203;SDS011;10261;49.010;12.034;2022-12-08T03:01:11;14.60;;;7.03;;
20203;SDS011;10261;49.010;12.034;2022-12-08T03:02:26;9.85;;;6.88;;
20203;SDS011;10261;49.010;12.034;2022-12-08T03:03:45;9.02;;;5.75;;
20203;SDS011;10261;49.010;12.034;2022-12-08T03:05:00;7.30;;;6.18;;
20203;SDS011;10261;49.010;12.034;2022-12-08T03:06:12;14.30;;;6.60;;
20203;SDS011;10261;49.010;12.034;2022-12-08T03:07:24;9.73;;;6.57;;
20203;SDS011;10261;49.010;12.034;2022-12-08T03:08:33;10.02;;;7.40;;
20203;SDS011;10261;49.010;12.034;2022-12-08T03:09:44;11.00;;;6.85;;
20203;SDS011;10261;49.010;12.034;2022-12-08T03:10:55;15.10;;;7.00;;
20203;SDS011;10261;49.010;12.034;2022-12-08T03:12:02;9.80;;;6.80;;
20203;SDS011;10261;49.010;12.034;2022-12-08T03:13:11;11.50;;;7.88;;
20203;SDS011;10261;49.010;12.034;2022-12-08T03:14:16;10.32;;;7.78;;
20203;SDS011;10261;49.010;12.034;2022-12-08T03:15:19;9.00;;;6.45;;
20203;SDS011;10261;49.010;12.034;2022-12-08T03:16:23;10.60;;;7.50;;
20203;SDS011;10261;49.010;12.034;2022-12-08T03:17:28;16.23;;;8.95;;
20203;SDS011;10261;49.010;12.034;2022-12-08T03:18:32;12.40;;;5.82;;
20203;SDS011;10261;49.010;12.034;2022-12-08T03:19:40;9.68;;;6.80;;
20203;SDS011;10261;49.010;12.034;2022-12-08T03:20:43;10.70;;;7.10;;
20203;SDS011;10261;49.010;12.034;2022-12-08T03:21:50;10.82;;;7.57;;
20203;SDS011;10261;49.010;12.034;2022-12-08T03:22:55;9.43;;;6.60;;
20203;SDS011;10261;49.010;12.034;2022-12-08T03:23:59;12.32;;;7.95;;
20203;SDS011;10261;49.010;12.034;2022-12-08T03:25:06;8.88;;;6.30;;
20203;SDS011;10261;49.010;12.034;2022-12-08T03:26:12;11.43;;;7.43;;
20203;SDS011;10261;49.010;12.034;2022-12-08T03:27:19;11.70;;;7.18;;
20203;SDS011;10261;49.010;12.034;2022-12-08T03:28:23;11.32;;;7.18;;
20203;SDS011;10261;49.010;12.034;2022-12-08T03:29:25;9.93;;;6.93;;
20203;SDS011;10261;49.010;12.034;2022-12-08T03:30:29;13.93;;;7.25;;
20203;SDS011;10261;49.010;12.034;2022-12-08T03:31:36;10.60;;;7.10;;
20203;SDS011;10261;49.010;12.034;2022-12-08T03:32:43;11.45;;;6.95;;
20203;SDS011;10261;49.010;12.034;2022-12-08T03:33:51;9.77;;;7.03;;
20203;SDS011;10261;49.010;12.034;2022-12-08T03:34:59;11.25;;;7.63;;
20203;SDS011;10261;49.010;12.034;2022-12-08T03:36:03;10.48;;;8.15;;
20203;SDS011;10261;49.010;12.034;2022-12-08T03:37:11;11.35;;;7.05;;
20203;SDS011;10261;49.010;12.034;2022-12-08T03:38:14;9.77;;;7.00;;
20203;SDS011;10261;49.010;12.034;2022-12-08T03:39:18;11.55;;;7.30;;
20203;SDS011;10261;49.010;12.034;2022-12-08T03:40:20;8.95;;;7.05;;
20203;SDS011;10261;49.010;12.034;2022-12-08T03:41:23;12.70;;;7.32;;
20203;SDS011;10261;49.010;12.034;2022-12-08T03:42:25;10.57;;;6.28;;
20203;SDS011;10261;49.010;12.034;2022-12-08T03:43:28;11.00;;;7.32;;
20203;SDS011;10261;49.010;12.034;2022-12-08T03:44:30;15.27;;;7.70;;
20203;SDS011;10261;49.010;12.034;2022-12-08T03:45:33;10.52;;;7.35;;
20203;SDS011;10261;49.010;12.034;2022-12-08T03:46:35;11.95;;;7.75;;
20203;SDS011;10261;49.010;12.034;2022-12-08T03:47:38;8.63;;;6.78;;
20203;SDS011;10261;49.010;12.034;2022-12-08T03:48:40;8.55;;;6.15;;
20203;SDS011;10261;49.010;12.034;2022-12-08T03:49:44;13.73;;;8.18;;
20203;SDS011;10261;49.010;12.034;2022-12-08T03:50:47;12.23;;;7.93;;
20203;SDS011;10261;49.010;12.034;2022-12-08T03:51:49;9.00;;;6.35;;
20203;SDS011;10261;49.010;12.034;2022-12-08T03:52:53;10.15;;;7.35;;
20203;SDS011;10261;49.010;12.034;2022-12-08T03:53:55;10.50;;;7.13;;
20203;SDS011;10261;49.010;12.034;2022-12-08T03:54:58;10.70;;;7.25;;
20203;SDS011;10261;49.010;12.034;2022-12-08T03:56:02;11.73;;;7.63;;
20203;SDS011;10261;49.010;12.034;2022-12-08T03:57:05;11.07;;;7.38;;
20203;SDS011;10261;49.010;12.034;2022-12-08T03:58:08;11.00;;;7.68;;
20203;SDS011;10261;49.010;12.034;2022-12-08T03:59:10;11.93;;;7.82;;
20203;SDS011;10261;49.010;12.034;2022-12-08T04:00:14;12.55;;;7.00;;
20203;SDS011;10261;49.010;12.034;2022-12-08T04:01:17;10.32;;;7.03;;
20203;SDS011;10261;49.010;12.034;2022-12-08T04:02:20;11.18;;;7.53;;
20203;SDS011;10261;49.010;12.034;2022-12-08T04:03:22;11.80;;;7.72;;
20203;SDS011;10261;49.010;12.034;2022-12-08T04:04:25;11.32;;;7.78;;
20203;SDS011;10261;49.010;12.034;2022-12-08T04:05:27;9.48;;;6.68;;
20203;SDS011;10261;49.010;12.034;2022-12-08T04:06:30;9.25;;;7.50;;
20203;SDS011;10261;49.010;12.034;2022-12-08T04:07:32;14.15;;;8.68;;
20203;SDS011;10261;49.010;12.034;2022-12-08T04:08:37;9.25;;;6.75;;
20203;SDS011;10261;49.010;12.034;2022-12-08T04:09:40;10.35;;;7.00;;
20203;SDS011;10261;49.010;12.034;2022-12-08T04:10:42;9.30;;;7.00;;
20203;SDS011;10261;49.010;12.034;2022-12-08T04:11:44;11.02;;;7.22;;
20203;SDS011;10261;49.010;12.034;2022-12-08T04:12:47;11.05;;;7.60;;
20203;SDS011;10261;49.010;12.034;2022-12-08T04:13:49;9.95;;;7.40;;
20203;SDS011;10261;49.010;12.034;2022-12-08T04:14:52;14.50;;;7.57;;
20203;SDS011;10261;49.010;12.034;2022-12-08T04:15:54;11.43;;;7.88;;
20203;SDS011;10261;49.010;12.034;2022-12-08T04:16:57;10.60;;;7.53;;
20203;SDS011;10261;49.010;12.034;2022-12-08T04:18:00;10.32;;;7.65;;
20203;SDS011;10261;49.010;12.034;2022-12-08T04:19:02;10.90;;;7.30;;
20203;SDS011;10261;49.010;12.034;2022-12-08T04:20:05;11.60;;;6.95;;
20203;SDS011;10261;49.010;12.034;2022-12-08T04:21:08;10.75;;;6.90;;
20203;SDS011;10261;49.010;12.034;2022-12-08T04:22:11;10.00;;;6.72;;
20203;SDS011;10261;49.010;12.034;2022-12-08T04:23:14;10.73;;;7.10;;
20203;SDS011;10261;49.010;12.034;2022-12-08T04:24:17;10.75;;;6.68;;
20203;SDS011;10261;49.010;12.034;2022-12-08T04:25:20;8.30;;;6.55;;
20203;SDS011;10261;49.010;12.034;2022-12-08T04:26:22;8.98;;;6.47;;
20203;SDS011;10261;49.010;12.034;2022-12-08T04:27:25;10.32;;;6.50;;
20203;SDS011;10261;49.010;12.034;2022-12-08T04:28:27;7.50;;;5.95;;
20203;SDS011;10261;49.010;12.034;2022-12-08T04:29:30;9.80;;;6.40;;
20203;SDS011;10261;49.010;12.034;2022-12-08T04:30:33;10.05;;;6.50;;
20203;SDS011;10261;49.010;12.034;2022-12-08T04:31:35;12.80;;;6.85;;
20203;SDS011;10261;49.010;12.034;2022-12-08T04:32:38;10.70;;;6.68;;
20203;SDS011;10261;49.010;12.034;2022-12-08T04:33:47;9.20;;;6.50;;
20203;SDS011;10261;49.010;12.034;2022-12-08T04:34:50;9.52;;;6.35;;
20203;SDS011;10261;49.010;12.034;2022-12-08T04:35:52;10.43;;;6.95;;
20203;SDS011;10261;49.010;12.034;2022-12-08T04:36:55;10.00;;;6.60;;
20203;SDS011;10261;49.010;12.034;2022-12-08T04:37:57;7.93;;;6.30;;
20203;SDS011;10261;49.010;12.034;2022-12-08T04:39:00;8.80;;;6.95;;
20203;SDS011;10261;49.010;12.034;2022-12-08T04:40:04;7.53;;;6.57;;
20203;SDS011;10261;49.010;12.034;2022-12-08T04:41:08;10.55;;;6.40;;
20203;SDS011;10261;49.010;12.034;2022-12-08T04:42:11;12.93;;;7.82;;
20203;SDS011;10261;49.010;12.034;2022-12-08T04:43:15;8.48;;;6.82;;
20203;SDS011;10261;49.010;12.034;2022-12-08T04:44:17;9.68;;;6.30;;
20203;SDS011;10261;49.010;12.034;2022-12-08T04:45:20;8.98;;;7.00;;
20203;SDS011;10261;49.010;12.034;2022-12-08T04:46:22;12.57;;;7.20;;
20203;SDS011;10261;49.010;12.034;2022-12-08T04:47:25;8.80;;;7.00;;
20203;SDS011;10261;49.010;12.034;2022-12-08T04:48:27;11.80;;;7.25;;
20203;SDS011;10261;49.010;12.034;2022-12-08T04:49:30;11.15;;;6.82;;
20203;SDS011;10261;49.010;12.034;2022-12-08T04:50:32;12.77;;;7.22;;
20203;SDS011;10261;49.010;12.034;2022-12-08T04:51:35;9.10;;;6.65;;
20203;SDS011;10261;49.010;12.034;2022-12-08T04:52:38;14.35;;;7.63;;
20203;SDS011;10261;49.010;12.034;2022-12-08T04:53:40;10.50;;;7.20;;
20203;SDS011;10261;49.010;12.034;2022-12-08T04:54:47;13.68;;;7.45;;
20203;SDS011;10261;49.010;12.034;2022-12-08T04:55:50;10.75;;;7.15;;
20203;SDS011;10261;49.010;12.034;2022-12-08T04:56:53;9.90;;;6.95;;
20203;SDS011;10261;49.010;12.034;2022-12-08T04:57:55;11.98;;;7.00;;
20203;SDS011;10261;49.010;12.034;2022-12-08T04:58:59;11.32;;;7.25;;
20203;SDS011;10261;49.010;12.034;2022-12-08T05:00:01;11.85;;;7.45;;
20203;SDS011;10261;49.010;12.034;2022-12-08T05:01:05;10.38;;;7.50;;
20203;SDS011;10261;49.010;12.034;2022-12-08T05:02:08;7.50;;;6.30;;
20203;SDS011;10261;49.010;12.034;2022-12-08T05:03:11;12.00;;;7.78;;
20203;SDS011;10261;49.010;12.034;2022-12-08T05:04:14;13.93;;;6.88;;
20203;SDS011;10261;49.010;12.034;2022-12-08T05:05:16;7.65;;;6.15;;
20203;SDS011;10261;49.010;12.034;2022-12-08T05:06:19;8.52;;;6.35;;
20203;SDS011;10261;49.010;12.034;2022-12-08T05:07:21;7.05;;;6.10;;
20203;SDS011;10261;49.010;12.034;2022-12-08T05:08:24;9.90;;;6.82;;
20203;SDS011;10261;49.010;12.034;2022-12-08T05:09:26;10.65;;;7.20;;
20203;SDS011;10261;49.010;12.034;2022-12-08T05:10:29;11.77;;;7.72;;
20203;SDS011;10261;49.010;12.034;2022-12-08T05:11:32;8.98;;;6.50;;
20203;SDS011;10261;49.010;12.034;2022-12-08T05:12:35;9.95;;;7.10;;
20203;SDS011;10261;49.010;12.034;2022-12-08T05:13:37;8.48;;;7.03;;
20203;SDS011;10261;49.010;12.034;2022-12-08T05:14:40;11.55;;;7.93;;
20203;SDS011;10261;49.010;12.034;2022-12-08T05:15:43;11.48;;;7.47;;
20203;SDS011;10261;49.010;12.034;2022-12-08T05:16:46;11.38;;;7.03;;
20203;SDS011;10261;49.010;12.034;2022-12-08T05:17:48;14.27;;;8.10;;
20203;SDS011;10261;49.010;12.034;2022-12-08T05:18:51;9.80;;;7.03;;
20203;SDS011;10261;49.010;12.034;2022-12-08T05:19:53;12.43;;;7.32;;
20203;SDS011;10261;49.010;12.034;2022-12-08T05:20:56;13.15;;;6.95;;
20203;SDS011;10261;49.010;12.034;2022-12-08T05:21:58;11.60;;;7.38;;
20203;SDS011;10261;49.010;12.034;2022-12-08T05:23:01;12.90;;;7.22;;
20203;SDS011;10261;49.010;12.034;2022-12-08T05:24:03;12.80;;;8.43;;
20203;SDS011;10261;49.010;12.034;2022-12-08T05:25:06;11.60;;;7.07;;
20203;SDS011;10261;49.010;12.034;2022-12-08T05:26:09;15.02;;;8.20;;
20203;SDS011;10261;49.010;12.034;2022-12-08T05:27:13;15.15;;;9.95;;
20203;SDS011;10261;49.010;12.034;2022-12-08T05:28:15;21.17;;;11.98;;
20203;SDS011;10261;49.010;12.034;2022-12-08T05:29:38;22.30;;;10.40;;
20203;SDS011;10261;49.010;12.034;2022-12-08T05:30:41;18.77;;;10.73;;
20203;SDS011;10261;49.010;12.034;2022-12-08T05:31:43;15.90;;;10.27;;
20203;SDS011;10261;49.010;12.034;2022-12-08T05:32:47;22.65;;;9.93;;
20203;SDS011;10261;49.010;12.034;2022-12-08T05:33:49;23.48;;;12.40;;
20203;SDS011;10261;49.010;12.034;2022-12-08T05:34:52;25.95;;;12.88;;
20203;SDS011;10261;49.010;12.034;2022-12-08T05:35:54;12.90;;;8.10;;
20203;SDS011;10261;49.010;12.034;2022-12-08T05:36:57;15.25;;;8.10;;
20203;SDS011;10261;49.010;12.034;2022-12-08T05:37:59;13.43;;;7.32;;
20203;SDS011;10261;49.010;12.034;2022-12-08T05:39:02;17.80;;;9.75;;
20203;SDS011;10261;49.010;12.034;2022-12-08T05:40:11;17.40;;;9.65;;
20203;SDS011;10261;49.010;12.034;2022-12-08T05:41:14;16.58;;;8.60;;
20203;SDS011;10261;49.010;12.034;2022-12-08T05:42:20;15.90;;;9.27;;
20203;SDS011;10261;49.010;12.034;2022-12-08T05:43:25;15.70;;;8.90;;
20203;SDS011;10261;49.010;12.034;2022-12-08T05:44:29;16.35;;;9.00;;
20203;SDS011;10261;49.010;12.034;2022-12-08T05:45:31;15.05;;;9.07;;
20203;SDS011;10261;49.010;12.034;2022-12-08T05:46:34;13.45;;;7.85;;
20203;SDS011;10261;49.010;12.034;2022-12-08T05:47:36;13.20;;;8.65;;
20203;SDS011;10261;49.010;12.034;2022-12-08T05:48:39;14.13;;;7.95;;
20203;SDS011;10261;49.010;12.034;2022-12-08T05:49:41;13.77;;;8.23;;
20203;SDS011;10261;49.010;12.034;2022-12-08T05:50:45;11.07;;;7.05;;
20203;SDS011;10261;49.010;12.034;2022-12-08T05:51:48;14.43;;;8.05;;
20203;SDS011;10261;49.010;12.034;2022-12-08T05:52:51;12.00;;;8.10;;
20203;SDS011;10261;49.010;12.034;2022-12-08T05:53:53;15.80;;;9.38;;
20203;SDS011;10261;49.010;12.034;2022-12-08T05:54:56;14.82;;;9.85;;
20203;SDS011;10261;49.010;12.034;2022-12-08T05:55:59;14.20;;;9.43;;
20203;SDS011;10261;49.010;12.034;2022-12-08T05:57:01;12.32;;;7.80;;
20203;SDS011;10261;49.010;12.034;2022-12-08T05:58:06;12.13;;;7.30;;
20203;SDS011;10261;49.010;12.034;2022-12-08T05:59:13;13.05;;;8.00;;
20203;SDS011;10261;49.010;12.034;2022-12-08T06:00:17;13.38;;;7.55;;
20203;SDS011;10261;49.010;12.034;2022-12-08T06:01:20;14.85;;;9.38;;
20203;SDS011;10261;49.010;12.034;2022-12-08T06:02:24;12.45;;;7.47;;
20203;SDS011;10261;49.010;12.034;2022-12-08T06:03:27;16.77;;;8.50;;
20203;SDS011;10261;49.010;12.034;2022-12-08T06:04:30;13.95;;;8.02;;
20203;SDS011;10261;49.010;12.034;2022-12-08T06:05:32;11.57;;;6.97;;
20203;SDS011;10261;49.010;12.034;2022-12-08T06:06:35;13.60;;;7.93;;
20203;SDS011;10261;49.010;12.034;2022-12-08T06:07:38;12.68;;;8.05;;
20203;SDS011;10261;49.010;12.034;2022-12-08T06:08:41;11.65;;;7.47;;
20203;SDS011;10261;49.010;12.034;2022-12-08T06:09:43;12.55;;;8.07;;
20203;SDS011;10261;49.010;12.034;2022-12-08T06:10:46;11.52;;;7.45;;
20203;SDS011;10261;49.010;12.034;2022-12-08T06:11:48;18.80;;;8.32;;
20203;SDS011;10261;49.010;12.034;2022-12-08T06:12:51;15.75;;;8.25;;
20203;SDS011;10261;49.010;12.034;2022-12-08T06:13:55;11.82;;;7.53;;
20203;SDS011;10261;49.010;12.034;2022-12-08T06:14:58;15.82;;;8.07;;
20203;SDS011;10261;49.010;12.034;2022-12-08T06:16:02;13.88;;;7.57;;
20203;SDS011;10261;49.010;12.034;2022-12-08T06:17:06;12.52;;;8.07;;
20203;SDS011;10261;49.010;12.034;2022-12-08T06:18:08;15.00;;;8.57;;
20203;SDS011;10261;49.010;12.034;2022-12-08T06:19:12;15.40;;;8.48;;
20203;SDS011;10261;49.010;12.034;2022-12-08T06:20:15;11.52;;;6.88;;
20203;SDS011;10261;49.010;12.034;2022-12-08T06:21:17;12.38;;;7.85;;
20203;SDS011;10261;49.010;12.034;2022-12-08T06:22:21;11.18;;;7.68;;
20203;SDS011;10261;49.010;12.034;2022-12-08T06:23:23;9.88;;;6.82;;
20203;SDS011;10261;49.010;12.034;2022-12-08T06:24:26;13.55;;;7.60;;
20203;SDS011;10261;49.010;12.034;2022-12-08T06:25:29;14.90;;;6.90;;
20203;SDS011;10261;49.010;12.034;2022-12-08T06:26:31;14.02;;;8.57;;
20203;SDS011;10261;49.010;12.034;2022-12-08T06:27:36;19.08;;;8.40;;
20203;SDS011;10261;49.010;12.034;2022-12-08T06:28:39;14.93;;;9.25;;